Time;durP1;ratioP1;P1;durP2;ratioP2;P2;SDS_P1;SDS_P2;PMS_P1;PMS_P2;Temp;Humidity;BMP_temperature;BMP_pressure;BME280_temperature;BME280_humidity;BME280_pressure;Samples;Min_cycle;Max_cycle;Signal;HPM_P1;HPM_P2
2022/04/03 00:01:45;;;;;;;15.63;5.80;;;;;;;-0.76;100.00;102336.78;5051989;28;20444;-75
2022/04/03 00:04:10;;;;;;;12.45;5.40;;;;;;;-0.84;100.00;102325.69;5042959;28;20163;-75
2022/04/03 00:06:36;;;;;;;14.52;5.50;;;;;;;-0.82;100.00;102355.53;5057300;28;20031;-76
2022/04/03 00:09:02;;;;;;;12.10;5.03;;;;;;;-0.95;100.00;102344.59;5085315;28;20044;-74
2022/04/03 00:11:28;;;;;;;13.95;6.97;;;;;;;-1.07;100.00;102323.97;5043609;28;20032;-76
2022/04/03 00:13:55;;;;;;;15.52;6.95;;;;;;;-0.97;100.00;102357.00;5059950;28;20032;-75
2022/04/03 00:16:21;;;;;;;14.90;6.93;;;;;;;-1.05;100.00;102330.06;5054837;28;20039;-76
2022/04/03 00:18:46;;;;;;;12.05;5.78;;;;;;;-0.83;100.00;102358.22;5053106;28;20078;-75
2022/04/03 00:21:13;;;;;;;11.38;5.70;;;;;;;-0.85;100.00;102360.91;5034966;28;20996;-76
2022/04/03 00:23:39;;;;;;;14.23;4.90;;;;;;;-1.01;100.00;102344.84;5035379;28;20046;-75
2022/04/03 00:26:05;;;;;;;7.63;4.57;;;;;;;-0.96;100.00;102360.50;5054350;28;20033;-75
2022/04/03 00:28:31;;;;;;;7.78;4.30;;;;;;;-1.02;100.00;102353.69;5038148;28;20635;-75
2022/04/03 00:30:57;;;;;;;8.05;3.63;;;;;;;-1.01;100.00;102359.81;5043542;28;20047;-75
2022/04/03 00:33:23;;;;;;;5.38;3.53;;;;;;;-1.00;100.00;102358.91;5037459;28;20508;-75
2022/04/03 00:35:50;;;;;;;4.28;2.75;;;;;;;-1.05;100.00;102351.19;5053182;28;20039;-75
2022/04/03 00:38:16;;;;;;;4.68;2.63;;;;;;;-1.11;100.00;102351.44;5052985;28;20123;-76
2022/04/03 00:40:44;;;;;;;8.43;3.63;;;;;;;-1.37;100.00;102324.28;5063750;28;20492;-76
2022/04/03 00:43:11;;;;;;;6.40;2.70;;;;;;;-1.40;100.00;102324.41;5058765;28;20033;-75
2022/04/03 00:45:38;;;;;;;4.82;2.65;;;;;;;-1.40;100.00;102336.75;5050642;28;20036;-75
2022/04/03 00:48:05;;;;;;;3.90;2.40;;;;;;;-1.57;100.00;102332.09;5029981;28;20035;-75
2022/04/03 00:50:31;;;;;;;6.13;3.00;;;;;;;-1.59;100.00;102334.81;5066401;28;20458;-75
2022/04/03 00:52:57;;;;;;;5.28;2.58;;;;;;;-1.67;100.00;102328.94;5033428;28;20032;-76
2022/04/03 00:55:22;;;;;;;2.85;1.95;;;;;;;-1.57;100.00;102324.19;5050097;28;20123;-76
2022/04/03 00:57:48;;;;;;;3.33;2.28;;;;;;;-1.53;100.00;102333.72;5065058;28;20024;-74
2022/04/03 01:00:14;;;;;;;4.72;2.45;;;;;;;-1.57;100.00;102329.47;5060126;28;20111;-76
2022/04/03 01:02:41;;;;;;;4.35;2.42;;;;;;;-1.62;100.00;102326.16;5065091;28;20039;-76
2022/04/03 01:05:07;;;;;;;10.43;2.80;;;;;;;-1.72;100.00;102330.03;5035744;28;20480;-76
2022/04/03 01:07:33;;;;;;;4.40;2.60;;;;;;;-1.71;100.00;102337.06;5052553;28;20473;-77
2022/04/03 01:09:59;;;;;;;6.28;3.17;;;;;;;-1.77;100.00;102332.88;5064277;28;20044;-77
2022/04/03 01:12:25;;;;;;;4.50;2.90;;;;;;;-1.89;100.00;102343.88;5070010;28;20032;-76
2022/04/03 01:14:50;;;;;;;4.63;2.50;;;;;;;-2.08;100.00;102327.88;5062560;28;20028;-75
2022/04/03 01:17:16;;;;;;;4.95;2.20;;;;;;;-2.32;100.00;102303.28;5061545;28;20036;-75
2022/04/03 01:19:42;;;;;;;4.22;2.35;;;;;;;-2.17;100.00;102342.25;5064649;28;20027;-76
2022/04/03 01:22:08;;;;;;;5.85;2.20;;;;;;;-2.23;100.00;102342.44;5044288;28;20075;-75
2022/04/03 01:24:35;;;;;;;3.50;2.08;;;;;;;-2.22;100.00;102341.56;5064346;28;20081;-75
2022/04/03 01:27:00;;;;;;;3.83;2.28;;;;;;;-2.33;100.00;102317.34;5065786;28;20502;-76
2022/04/03 01:29:26;;;;;;;5.70;2.65;;;;;;;-2.13;100.00;102333.31;5074071;28;20081;-75
2022/04/03 01:31:52;;;;;;;5.43;2.33;;;;;;;-2.05;100.00;102323.34;5061759;28;20085;-75
2022/04/03 01:34:20;;;;;;;3.80;2.00;;;;;;;-1.84;100.00;102336.66;5065814;28;20036;-75
2022/04/03 01:36:46;;;;;;;4.60;2.42;;;;;;;-1.73;100.00;102331.84;5033187;28;20098;-76
2022/04/03 01:39:12;;;;;;;7.68;2.47;;;;;;;-1.79;100.00;102325.00;5061140;28;20124;-76
2022/04/03 01:41:42;;;;;;;4.63;2.35;;;;;;;-1.90;100.00;102329.84;5070558;28;20162;-74
2022/04/03 01:44:12;;;;;;;9.48;3.80;;;;;;;-2.46;100.00;102256.31;5063037;28;20123;-76
2022/04/03 01:46:40;;;;;;;6.07;2.90;;;;;;;-2.24;100.00;102324.94;5048301;28;20040;-75
2022/04/03 01:49:07;;;;;;;8.10;3.92;;;;;;;-2.41;100.00;102322.88;5060177;28;20064;-76
2022/04/03 01:51:33;;;;;;;18.30;7.03;;;;;;;-2.64;100.00;102321.06;5058728;28;20028;-75
2022/04/03 01:54:00;;;;;;;19.90;6.63;;;;;;;-2.71;100.00;102336.19;5058068;28;20033;-75
2022/04/03 01:56:25;;;;;;;17.73;7.68;;;;;;;-2.75;100.00;102321.44;5063643;28;20111;-74
2022/04/03 01:58:51;;;;;;;10.38;4.00;;;;;;;-2.64;100.00;102325.47;5066269;28;20583;-76
2022/04/03 02:01:17;;;;;;;11.15;4.30;;;;;;;-2.55;100.00;102333.03;5049060;28;20028;-74
2022/04/03 02:03:43;;;;;;;8.50;3.65;;;;;;;-2.52;100.00;102338.19;5045653;28;21733;-76
2022/04/03 02:06:08;;;;;;;6.93;3.35;;;;;;;-2.46;100.00;102325.69;5031962;28;20115;-76
2022/04/03 02:08:34;;;;;;;5.93;3.83;;;;;;;-2.36;100.00;102328.00;5039568;28;20453;-76
2022/04/03 02:11:00;;;;;;;5.90;3.22;;;;;;;-2.41;100.00;102328.16;5043542;28;20044;-75
2022/04/03 02:13:26;;;;;;;8.63;5.13;;;;;;;-2.52;100.00;102330.31;5046684;28;20039;-75
2022/04/03 02:15:51;;;;;;;7.03;3.10;;;;;;;-2.76;100.00;102285.47;5042689;28;20020;-77
2022/04/03 02:18:17;;;;;;;8.55;4.70;;;;;;;-2.47;100.00;102315.19;5061839;28;20051;-75
2022/04/03 02:20:43;;;;;;;8.05;3.50;;;;;;;-2.31;100.00;102328.69;5062507;28;20050;-75
2022/04/03 02:23:10;;;;;;;13.05;4.57;;;;;;;-2.26;100.00;102332.03;5047204;28;20040;-75
2022/04/03 02:25:36;;;;;;;9.25;4.22;;;;;;;-2.27;100.00;102331.16;5064022;28;20050;-75
2022/04/03 02:28:03;;;;;;;9.50;4.55;;;;;;;-2.39;100.00;102321.06;5032129;28;20517;-75
2022/04/03 02:30:29;;;;;;;7.60;3.78;;;;;;;-2.50;100.00;102320.56;5060161;28;20387;-76
2022/04/03 02:32:54;;;;;;;9.98;4.40;;;;;;;-2.62;100.00;102313.09;5063922;28;20059;-75
2022/04/03 02:35:20;;;;;;;11.80;4.80;;;;;;;-2.54;100.00;102326.84;5060858;28;20094;-75
2022/04/03 02:37:46;;;;;;;6.90;3.63;;;;;;;-2.34;100.00;102334.94;5030671;28;20067;-75
2022/04/03 02:40:14;;;;;;;11.50;3.63;;;;;;;-1.98;100.00;102329.25;5057150;28;20397;-75
2022/04/03 02:42:40;;;;;;;8.48;3.60;;;;;;;-1.90;100.00;102318.44;5029270;28;20047;-74
2022/04/03 02:45:06;;;;;;;10.93;3.47;;;;;;;-1.66;100.00;102324.56;5046915;28;20024;-75
2022/04/03 02:47:33;;;;;;;9.25;3.78;;;;;;;-1.62;100.00;102328.78;5066834;28;20025;-74
2022/04/03 02:49:59;;;;;;;8.35;4.03;;;;;;;-1.71;100.00;102324.72;5061573;28;20654;-75
2022/04/03 02:52:25;;;;;;;13.20;4.40;;;;;;;-1.81;100.00;102326.84;5046720;28;20036;-75
2022/04/03 02:54:50;;;;;;;7.45;3.00;;;;;;;-1.95;100.00;102326.50;5063423;28;20519;-76
2022/04/03 02:57:17;;;;;;;13.82;4.45;;;;;;;-2.08;100.00;102322.59;5061021;28;20032;-75
2022/04/03 02:59:46;;;;;;;3.53;2.38;;;;;;;-2.20;100.00;102318.63;5049166;28;20037;-74
2022/04/03 03:02:12;;;;;;;5.32;2.50;;;;;;;-2.33;100.00;102304.16;5059844;28;20478;-75
2022/04/03 03:04:40;;;;;;;9.00;3.58;;;;;;;-2.22;100.00;102336.28;5062257;28;20123;-76
2022/04/03 03:07:09;;;;;;;5.75;2.42;;;;;;;-2.21;100.00;102341.47;5034237;28;20040;-75
2022/04/03 03:09:35;;;;;;;8.02;3.90;;;;;;;-2.26;100.00;102327.59;5061581;28;20048;-75
2022/04/03 03:12:01;;;;;;;4.60;2.78;;;;;;;-2.29;100.00;102319.81;5045880;28;20454;-75
2022/04/03 03:14:27;;;;;;;6.25;3.83;;;;;;;-2.42;100.00;102322.94;5028679;28;20054;-75
2022/04/03 03:16:53;;;;;;;9.75;3.65;;;;;;;-2.50;100.00;102318.78;5044771;28;20090;-75
2022/04/03 03:19:19;;;;;;;11.20;5.93;;;;;;;-2.61;100.00;102318.31;5062005;28;20452;-74
2022/04/03 03:21:45;;;;;;;6.50;3.35;;;;;;;-2.63;100.00;102321.91;5062743;28;20036;-75
2022/04/03 03:24:10;;;;;;;6.95;3.55;;;;;;;-2.72;100.00;102294.13;5046560;28;20066;-75
2022/04/03 03:26:37;;;;;;;5.80;3.13;;;;;;;-2.56;100.00;102308.47;5062134;28;20036;-74
2022/04/03 03:29:03;;;;;;;3.75;2.67;;;;;;;-2.53;100.00;102315.44;5063928;28;20146;-75
2022/04/03 03:31:29;;;;;;;3.45;2.05;;;;;;;-2.67;100.00;102322.03;5068478;28;20036;-76
2022/04/03 03:33:55;;;;;;;8.05;2.78;;;;;;;-2.83;100.00;102325.19;5082077;28;20379;-75
2022/04/03 03:36:20;;;;;;;9.30;3.80;;;;;;;-2.92;100.00;102321.13;5066637;28;20462;-74
2022/04/03 03:38:46;;;;;;;5.65;3.00;;;;;;;-3.02;100.00;102323.19;5028994;28;20041;-75
2022/04/03 03:41:14;;;;;;;6.90;2.88;;;;;;;-3.14;100.00;102324.44;5066838;28;20029;-76
2022/04/03 03:43:40;;;;;;;5.65;2.55;;;;;;;-3.23;100.00;102319.47;5067120;28;20024;-74
2022/04/03 03:46:06;;;;;;;6.57;3.67;;;;;;;-3.21;100.00;102320.28;5049833;28;20389;-74
2022/04/03 03:48:31;;;;;;;5.10;2.10;;;;;;;-3.05;100.00;102323.28;5064568;28;20047;-75
2022/04/03 03:50:57;;;;;;;5.45;3.00;;;;;;;-2.99;100.00;102319.59;5035234;28;21180;-74
2022/04/03 03:53:22;;;;;;;4.43;2.30;;;;;;;-2.95;100.00;102319.44;5068573;28;20036;-75
2022/04/03 03:55:49;;;;;;;6.35;2.45;;;;;;;-2.96;100.00;102325.63;5045324;28;20020;-74
2022/04/03 03:58:15;;;;;;;7.55;3.53;;;;;;;-3.02;100.00;102317.06;5049530;28;20035;-76
2022/04/03 04:00:41;;;;;;;5.63;3.00;;;;;;;-3.08;100.00;102322.53;5050295;28;20036;-75
2022/04/03 04:03:07;;;;;;;4.18;2.38;;;;;;;-3.12;100.00;102322.63;5067762;28;20081;-74
2022/04/03 04:05:35;;;;;;;4.82;2.47;;;;;;;-3.21;100.00;102312.38;5052087;28;20044;-75
2022/04/03 04:08:01;;;;;;;5.80;3.05;;;;;;;-3.35;100.00;102304.94;5033556;28;20044;-74
2022/04/03 04:10:27;;;;;;;9.07;3.25;;;;;;;-3.29;100.00;102324.06;5084147;28;20089;-76
2022/04/03 04:12:52;;;;;;;6.72;3.17;;;;;;;-3.33;100.00;102324.19;5062765;28;20059;-75
2022/04/03 04:15:18;;;;;;;7.60;3.55;;;;;;;-2.87;100.00;102333.22;5030988;28;20028;-76
2022/04/03 04:17:47;;;;;;;6.85;3.17;;;;;;;-2.71;100.00;102330.94;5067977;28;20028;-74
2022/04/03 04:20:15;;;;;;;8.70;4.30;;;;;;;-2.95;100.00;102335.22;5035209;28;20056;-75
2022/04/03 04:22:43;;;;;;;2.55;1.45;;;;;;;-3.08;100.00;102339.16;5059207;28;20493;-74
2022/04/03 04:25:11;;;;;;;6.22;2.80;;;;;;;-3.07;100.00;102329.50;5070229;28;20028;-76
2022/04/03 04:27:37;;;;;;;9.20;3.40;;;;;;;-3.07;100.00;102321.59;5062270;28;20025;-75
2022/04/03 04:30:04;;;;;;;6.10;2.40;;;;;;;-3.12;100.00;102325.28;5037245;28;20041;-75
2022/04/03 04:32:30;;;;;;;5.72;3.28;;;;;;;-3.28;100.00;102320.53;5061245;28;20033;-76
2022/04/03 04:34:55;;;;;;;5.43;3.40;;;;;;;-3.29;100.00;102330.19;5061973;28;20035;-75
2022/04/03 04:37:21;;;;;;;9.23;3.45;;;;;;;-3.40;100.00;102329.66;5040829;28;20033;-75
2022/04/03 04:39:46;;;;;;;5.60;2.50;;;;;;;-3.50;100.00;102322.97;5030326;28;20039;-74
2022/04/03 04:42:13;;;;;;;3.42;2.08;;;;;;;-3.49;100.00;102332.56;5030417;28;20065;-74
2022/04/03 04:44:39;;;;;;;0.52;0.52;;;;;;;-3.59;100.00;102332.84;5052068;28;20033;-74
2022/04/03 04:47:05;;;;;;;8.23;3.35;;;;;;;-3.57;100.00;102333.69;5034776;28;20032;-74
2022/04/03 04:49:30;;;;;;;6.15;3.15;;;;;;;-3.51;100.00;102330.00;5062034;28;20385;-74
2022/04/03 04:51:56;;;;;;;5.97;2.50;;;;;;;-3.58;100.00;102321.41;5057858;28;20517;-74
2022/04/03 04:54:21;;;;;;;5.88;3.13;;;;;;;-3.39;100.00;102341.91;5047602;28;20109;-76
2022/04/03 04:56:47;;;;;;;4.22;2.25;;;;;;;-3.34;100.00;102343.47;5048230;28;20487;-74
2022/04/03 04:59:16;;;;;;;5.97;2.85;;;;;;;-3.42;100.00;102332.34;5058405;28;20035;-73
2022/04/03 05:01:41;;;;;;;5.85;2.60;;;;;;;-3.46;100.00;102341.25;5063574;28;20130;-75
2022/04/03 05:04:07;;;;;;;9.35;3.33;;;;;;;-3.58;100.00;102344.22;5066058;28;20494;-74
2022/04/03 05:06:36;;;;;;;3.75;2.35;;;;;;;-3.61;100.00;102344.31;5033738;28;20468;-74
2022/04/03 05:09:05;;;;;;;5.55;2.42;;;;;;;-3.72;100.00;102326.25;5046384;28;20032;-75
2022/04/03 05:11:31;;;;;;;5.30;3.22;;;;;;;-3.64;100.00;102347.06;5062771;28;20027;-72
2022/04/03 05:13:58;;;;;;;11.48;3.95;;;;;;;-3.69;100.00;102348.94;5063576;28;20170;-76
2022/04/03 05:16:24;;;;;;;9.30;3.55;;;;;;;-3.78;100.00;102345.69;5058399;28;20040;-73
2022/04/03 05:18:51;;;;;;;6.82;3.58;;;;;;;-3.76;100.00;102340.38;5046671;28;20032;-77
2022/04/03 05:21:16;;;;;;;9.30;4.07;;;;;;;-3.80;100.00;102338.75;5063266;28;20040;-75
2022/04/03 05:23:42;;;;;;;6.38;2.33;;;;;;;-3.77;100.00;102343.91;5059967;28;20032;-73
2022/04/03 05:26:09;;;;;;;6.32;3.15;;;;;;;-3.79;100.00;102350.97;5030074;28;20037;-76
2022/04/03 05:28:35;;;;;;;9.18;3.28;;;;;;;-3.83;100.00;102354.63;5050119;28;20067;-75
2022/04/03 05:31:01;;;;;;;7.07;2.60;;;;;;;-3.75;100.00;102352.63;5061819;28;20117;-75
2022/04/03 05:33:26;;;;;;;8.07;3.03;;;;;;;-3.76;100.00;102343.00;5066094;28;20025;-75
2022/04/03 05:35:52;;;;;;;11.65;3.88;;;;;;;-3.80;100.00;102331.72;5031644;28;20028;-75
2022/04/03 05:38:18;;;;;;;9.55;4.05;;;;;;;-3.72;100.00;102341.16;5060923;28;20035;-75
2022/04/03 05:40:43;;;;;;;14.25;4.25;;;;;;;-3.66;100.00;102344.44;5032075;28;20060;-76
2022/04/03 05:43:09;;;;;;;13.82;4.70;;;;;;;-3.76;100.00;102330.75;5064173;28;20420;-75
2022/04/03 05:45:35;;;;;;;7.07;3.72;;;;;;;-3.66;100.00;102347.09;5064950;28;20032;-75
2022/04/03 05:48:02;;;;;;;16.10;4.75;;;;;;;-3.71;100.00;102354.25;5042344;28;20024;-74
2022/04/03 05:50:27;;;;;;;11.13;3.70;;;;;;;-3.85;100.00;102346.75;5029947;28;20036;-75
2022/04/03 05:52:54;;;;;;;13.02;3.75;;;;;;;-3.89;100.00;102352.16;5043061;28;20423;-76
2022/04/03 05:55:21;;;;;;;9.13;2.88;;;;;;;-4.04;100.00;102338.53;5055972;28;20031;-76
2022/04/03 05:57:48;;;;;;;6.93;2.83;;;;;;;-3.97;100.00;102360.25;5048423;28;20044;-74
2022/04/03 06:00:15;;;;;;;9.77;3.53;;;;;;;-4.03;100.00;102361.28;5048002;28;20024;-74
2022/04/03 06:02:55;;;;;;;6.95;2.75;;;;;;;-4.00;100.00;102358.56;5052538;28;20044;-74
2022/04/03 06:05:29;;;;;;;8.20;2.78;;;;;;;-3.91;100.00;102364.50;5065568;28;20040;-74
2022/04/03 06:07:55;;;;;;;6.82;2.85;;;;;;;-3.91;100.00;102360.09;5063214;28;20036;-75
2022/04/03 06:10:23;;;;;;;5.32;2.72;;;;;;;-3.81;100.00;102364.19;5067830;28;20035;-75
2022/04/03 06:13:06;;;;;;;6.93;3.38;;;;;;;-3.76;100.00;102366.66;5063559;28;20393;-74
2022/04/03 06:15:33;;;;;;;;;;;;;;;-3.63;100.00;102368.03;5061027;28;20032;-75
2022/04/03 06:17:59;;;;;;;5.47;2.88;;;;;;;-3.56;100.00;102359.06;5050149;28;20373;-73
2022/04/03 06:20:25;;;;;;;0.52;0.52;;;;;;;-3.53;100.00;102358.09;5047285;28;20033;-74
2022/04/03 06:22:51;;;;;;;5.70;3.22;;;;;;;-3.44;100.00;102364.84;5026984;28;20043;-74
2022/04/03 06:25:17;;;;;;;5.65;2.00;;;;;;;-3.32;100.00;102359.22;5066618;28;20490;-73
2022/04/03 06:27:43;;;;;;;7.63;2.40;;;;;;;-3.22;100.00;102358.03;5031128;28;20039;-73
2022/04/03 06:30:09;;;;;;;5.35;2.83;;;;;;;-3.08;100.00;102365.50;5065534;28;20028;-74
2022/04/03 06:32:35;;;;;;;3.67;2.15;;;;;;;-2.99;100.00;102365.22;5064041;28;20703;-76
2022/04/03 06:35:00;;;;;;;6.32;3.00;;;;;;;-3.01;100.00;102351.22;5045180;28;20035;-74
2022/04/03 06:37:26;;;;;;;7.13;2.97;;;;;;;-2.88;100.00;102356.97;5059699;28;20822;-75
2022/04/03 06:39:52;;;;;;;6.85;2.55;;;;;;;-2.74;100.00;102357.34;5063265;28;20029;-74
2022/04/03 06:42:18;;;;;;;7.10;2.88;;;;;;;-2.50;100.00;102360.09;5049621;28;20048;-74
2022/04/03 06:44:44;;;;;;;8.90;2.85;;;;;;;-2.42;100.00;102371.22;5033407;28;20086;-73
2022/04/03 06:47:10;;;;;;;5.53;3.22;;;;;;;-2.29;100.00;102364.59;5032780;28;20050;-74
2022/04/03 06:49:36;;;;;;;10.00;3.22;;;;;;;-2.05;100.00;102369.94;5044780;28;20036;-75
2022/04/03 06:52:01;;;;;;;4.30;3.22;;;;;;;-1.83;100.00;102370.00;5032185;28;20465;-74
2022/04/03 06:54:29;;;;;;;5.90;3.10;;;;;;;-1.61;100.00;102365.66;5064350;28;20040;-75
2022/04/03 06:56:55;;;;;;;8.15;3.28;;;;;;;-1.40;100.00;102371.91;5047717;28;20127;-74
2022/04/03 06:59:21;;;;;;;9.45;3.50;;;;;;;-1.01;100.00;102370.38;5032924;28;20044;-76
2022/04/03 07:01:46;;;;;;;8.00;3.30;;;;;;;-0.89;100.00;102365.47;5080898;28;20021;-75
2022/04/03 07:04:12;;;;;;;6.22;3.38;;;;;;;-0.80;100.00;102377.44;5035237;28;20043;-75
2022/04/03 07:06:38;;;;;;;5.38;2.92;;;;;;;-0.68;100.00;102373.44;5067489;28;20039;-74
2022/04/03 07:09:03;;;;;;;8.80;3.67;;;;;;;-0.49;100.00;102368.25;5055458;28;20391;-74
2022/04/03 07:11:29;;;;;;;8.93;3.60;;;;;;;-0.33;100.00;102381.66;5038050;28;20043;-74
2022/04/03 07:13:55;;;;;;;8.68;4.07;;;;;;;0.03;100.00;102378.34;5032633;28;20045;-74
2022/04/03 07:16:21;;;;;;;11.35;4.32;;;;;;;0.53;100.00;102376.06;5065367;28;20123;-75
2022/04/03 07:18:46;;;;;;;10.40;5.15;;;;;;;1.04;100.00;102373.66;5071546;28;20465;-74
2022/04/03 07:21:12;;;;;;;15.77;5.32;;;;;;;1.31;100.00;102359.03;5036259;28;20044;-75
2022/04/03 07:23:37;;;;;;;13.98;5.45;;;;;;;1.96;99.93;102374.34;5060395;28;20032;-74
2022/04/03 07:26:05;;;;;;;19.88;5.90;;;;;;;2.30;98.83;102377.81;5051111;28;20048;-74
2022/04/03 07:28:31;;;;;;;16.20;5.43;;;;;;;3.40;95.35;102365.47;5067250;28;20029;-74
2022/04/03 07:30:58;;;;;;;14.60;5.07;;;;;;;4.85;89.67;102367.16;5060657;28;20047;-75
2022/04/03 07:33:24;;;;;;;8.18;4.47;;;;;;;6.15;83.72;102365.53;5066442;28;20028;-75
2022/04/03 07:35:51;;;;;;;16.55;5.57;;;;;;;6.86;78.60;102370.34;5030618;28;20096;-75
2022/04/03 07:38:17;;;;;;;10.60;4.80;;;;;;;7.09;77.28;102377.50;5066248;28;20503;-75
2022/04/03 07:40:44;;;;;;;17.05;5.90;;;;;;;7.21;76.70;102375.75;5061653;28;20032;-75
2022/04/03 07:43:09;;;;;;;13.65;5.88;;;;;;;7.31;76.31;102381.28;5063481;28;20039;-76
2022/04/03 07:45:37;;;;;;;15.48;6.10;;;;;;;7.28;77.45;102382.38;5051976;28;20449;-75
2022/04/03 07:48:06;;;;;;;16.90;9.52;;;;;;;7.71;78.88;102371.09;5047667;28;20043;-76
2022/04/03 07:50:35;;;;;;;10.13;6.75;;;;;;;8.67;76.14;102381.41;5059637;28;20036;-75
2022/04/03 07:53:00;;;;;;;23.50;13.30;;;;;;;9.24;72.50;102382.16;5069232;28;20040;-75
2022/04/03 07:55:26;;;;;;;7.32;4.45;;;;;;;9.29;71.26;102369.22;5055492;28;20039;-75
2022/04/03 07:57:52;;;;;;;7.97;3.97;;;;;;;9.43;72.24;102376.94;5034537;28;20064;-75
2022/04/03 08:00:17;;;;;;;8.90;6.35;;;;;;;9.65;70.89;102365.25;5055570;28;20084;-76
2022/04/03 08:02:46;;;;;;;5.18;3.60;;;;;;;9.85;69.86;102389.56;5082105;28;20035;-76
2022/04/03 08:05:15;;;;;;;4.07;2.97;;;;;;;9.72;70.17;102388.91;5066848;28;20024;-76
2022/04/03 08:07:49;;;;;;;4.07;2.95;;;;;;;9.76;70.61;102391.19;5068207;28;20081;-76
2022/04/03 08:10:17;;;;;;;4.97;3.53;;;;;;;10.30;69.83;102391.97;5065037;28;20031;-74
2022/04/03 08:12:44;;;;;;;4.60;3.10;;;;;;;10.74;69.02;102381.81;5043789;28;20044;-76
2022/04/03 08:15:11;;;;;;;5.72;4.00;;;;;;;11.37;67.92;102381.50;5063650;28;20064;-74
2022/04/03 08:17:46;;;;;;;6.18;4.70;;;;;;;12.07;65.36;102384.88;5062414;28;20525;-76
2022/04/03 08:20:17;;;;;;;4.45;3.92;;;;;;;12.52;63.61;102381.44;5056374;28;20028;-76
2022/04/03 08:22:43;;;;;;;5.40;3.60;;;;;;;12.73;61.75;102370.41;5068260;28;20033;-76
2022/04/03 08:25:10;;;;;;;6.85;3.72;;;;;;;12.67;61.88;102384.47;5072583;28;20074;-75
2022/04/03 08:27:53;;;;;;;6.72;3.67;;;;;;;12.47;61.67;102381.03;5066309;28;20485;-77
2022/04/03 08:30:27;;;;;;;5.75;3.72;;;;;;;12.30;62.36;102372.72;5073733;28;20494;-75
2022/04/03 08:32:54;;;;;;;5.82;3.95;;;;;;;12.41;62.28;102362.72;5069198;28;20028;-76
2022/04/03 08:35:21;;;;;;;6.80;4.32;;;;;;;13.28;63.26;102372.19;5065252;28;20056;-76
2022/04/03 08:37:48;;;;;;;5.15;4.00;;;;;;;14.19;58.55;102375.44;5037183;28;20044;-76
2022/04/03 08:40:14;;;;;;;7.05;4.18;;;;;;;14.73;55.53;102380.63;5065922;28;20152;-76
2022/04/03 08:42:41;;;;;;;7.20;4.18;;;;;;;14.67;53.90;102367.75;5033606;28;20037;-75
2022/04/03 08:45:11;;;;;;;6.40;4.25;;;;;;;14.57;54.96;102372.44;5036236;28;20087;-76
2022/04/03 08:47:48;;;;;;;8.25;4.65;;;;;;;14.77;55.59;102368.47;5036049;28;20029;-76
2022/04/03 08:50:15;;;;;;;9.30;5.03;;;;;;;15.23;53.11;102357.22;5086303;28;20028;-75
2022/04/03 08:52:48;;;;;;;5.28;3.90;;;;;;;15.22;52.68;102366.38;5066447;28;20050;-76
2022/04/03 08:55:14;;;;;;;8.60;4.13;;;;;;;15.14;52.38;102368.03;5050901;28;20039;-76
2022/04/03 08:57:40;;;;;;;12.63;4.85;;;;;;;15.09;53.25;102366.84;5042614;28;20041;-78
2022/04/03 09:00:07;;;;;;;8.82;5.05;;;;;;;15.29;53.07;102351.13;5054634;28;20485;-79
2022/04/03 09:02:32;;;;;;;7.35;4.53;;;;;;;15.79;51.49;102353.69;5068251;28;20074;-79
2022/04/03 09:04:58;;;;;;;7.13;4.60;;;;;;;16.04;49.95;102359.09;5066158;28;20040;-79
2022/04/03 09:07:24;;;;;;;8.32;4.15;;;;;;;15.91;51.63;102346.03;5066072;28;20024;-79
2022/04/03 09:09:57;;;;;;;6.65;4.38;;;;;;;16.56;50.62;102350.41;5050154;28;20503;-79
2022/04/03 09:12:26;;;;;;;7.38;4.13;;;;;;;17.20;47.99;102360.25;5032628;28;20479;-79
2022/04/03 09:14:55;;;;;;;7.90;4.38;;;;;;;18.20;44.38;102365.50;5064800;28;20024;-80
2022/04/03 09:17:40;;;;;;;6.22;3.67;;;;;;;18.67;44.06;102361.53;5062887;28;20032;-79
2022/04/03 09:20:15;;;;;;;6.03;3.70;;;;;;;19.24;43.00;102357.19;5037140;28;20040;-79
2022/04/03 09:22:43;;;;;;;8.30;3.72;;;;;;;19.69;42.54;102353.22;5038269;28;20086;-78
2022/04/03 09:25:13;;;;;;;5.25;3.45;;;;;;;19.17;41.23;102335.31;5065239;28;20060;-78
2022/04/03 09:27:53;;;;;;;4.45;3.10;;;;;;;18.65;42.14;102345.38;5068165;28;20442;-78
2022/04/03 09:30:21;;;;;;;7.20;3.20;;;;;;;18.57;43.68;102342.75;5070903;28;20064;-78
2022/04/03 09:32:57;;;;;;;5.35;3.30;;;;;;;18.64;43.60;102345.59;5039798;28;20094;-78
2022/04/03 09:35:31;;;;;;;6.57;3.33;;;;;;;18.67;41.76;102339.75;5045356;28;20108;-78
2022/04/03 09:38:13;;;;;;;4.75;3.17;;;;;;;18.43;42.45;102346.38;5062136;28;20033;-78
2022/04/03 09:40:43;;;;;;;6.97;3.10;;;;;;;18.60;42.61;102347.00;5036467;28;20429;-78
2022/04/03 09:43:17;;;;;;;4.88;3.10;;;;;;;19.60;40.35;102343.44;5052334;28;20071;-78
2022/04/03 09:45:50;;;;;;;4.90;3.53;;;;;;;20.35;37.17;102336.44;5050188;28;20028;-78
2022/04/03 09:48:24;;;;;;;9.65;4.10;;;;;;;20.56;37.04;102349.19;5042487;28;20045;-79
2022/04/03 09:51:12;;;;;;;5.95;3.15;;;;;;;20.44;36.45;102342.56;5064565;28;20563;-79
2022/04/03 09:53:51;;;;;;;8.35;3.40;;;;;;;19.89;37.53;102342.44;5064132;28;20032;-79
2022/04/03 09:56:31;;;;;;;4.68;3.20;;;;;;;20.20;36.33;102342.03;5049926;28;20032;-78
2022/04/03 09:58:57;;;;;;;9.30;4.05;;;;;;;20.39;36.30;102331.41;5069925;28;20481;-79
2022/04/03 10:01:30;;;;;;;5.05;3.30;;;;;;;20.32;35.57;102335.97;5065830;28;20048;-80
2022/04/03 10:04:00;;;;;;;6.85;3.95;;;;;;;20.70;36.22;102325.47;5083092;28;20039;-79
2022/04/03 10:06:26;;;;;;;6.43;3.40;;;;;;;20.57;35.45;102292.63;5054056;28;20037;-76
2022/04/03 10:08:52;;;;;;;9.25;3.55;;;;;;;20.41;35.02;102310.19;5060539;28;20060;-77
2022/04/03 10:11:19;;;;;;;7.32;3.92;;;;;;;19.63;36.73;102318.50;5044975;28;20070;-76
2022/04/03 10:13:45;;;;;;;6.60;3.85;;;;;;;19.50;37.00;102319.25;5048815;28;20033;-76
2022/04/03 10:16:11;;;;;;;8.07;3.55;;;;;;;19.29;37.12;102320.13;5068194;28;20031;-77
2022/04/03 10:18:39;;;;;;;8.82;5.18;;;;;;;19.58;36.47;102331.06;5052495;28;20033;-76
2022/04/03 10:21:07;;;;;;;7.55;3.40;;;;;;;19.76;35.52;102324.09;5035143;28;20052;-77
2022/04/03 10:23:33;;;;;;;8.05;3.85;;;;;;;19.87;36.50;102324.59;5062382;28;20062;-76
2022/04/03 10:26:00;;;;;;;7.13;3.67;;;;;;;20.33;34.67;102326.75;5040056;28;20202;-76
2022/04/03 10:28:26;;;;;;;6.70;3.97;;;;;;;20.29;35.08;102318.09;5039248;28;20102;-76
2022/04/03 10:31:07;;;;;;;4.65;3.20;;;;;;;20.96;34.01;102319.25;5043706;28;20041;-77
2022/04/03 10:33:40;;;;;;;5.95;3.90;;;;;;;21.28;32.81;102312.13;5049801;28;20036;-74
2022/04/03 10:36:11;;;;;;;5.75;3.75;;;;;;;21.03;33.28;102303.66;5050393;28;20024;-77
2022/04/03 10:38:43;;;;;;;7.72;3.40;;;;;;;21.27;32.36;102304.97;5059438;28;20037;-77
2022/04/03 10:41:33;;;;;;;8.90;3.85;;;;;;;22.10;32.14;102303.66;5065467;28;20028;-77
2022/04/03 10:44:15;;;;;;;6.07;3.80;;;;;;;22.45;30.94;102311.56;5049290;28;20367;-77
2022/04/03 10:47:02;;;;;;;11.13;3.47;;;;;;;22.91;29.77;102307.75;5058606;28;20033;-76
2022/04/03 10:50:01;;;;;;;6.03;3.10;;;;;;;22.93;29.38;102298.22;5063958;28;20043;-77
2022/04/03 10:52:46;;;;;;;7.07;3.00;;;;;;;22.90;29.46;102304.16;5044491;28;20020;-75
2022/04/03 10:55:12;;;;;;;7.93;3.40;;;;;;;22.84;29.38;102294.09;5042310;28;20029;-77
2022/04/03 10:57:45;;;;;;;6.80;2.65;;;;;;;22.71;30.11;102295.00;5043363;28;20040;-74
2022/04/03 11:00:14;;;;;;;5.72;3.10;;;;;;;22.96;29.03;102280.50;5066179;28;20068;-77
2022/04/03 11:02:54;;;;;;;6.18;2.92;;;;;;;22.96;28.37;102275.88;5048806;28;20033;-75
2022/04/03 11:05:26;;;;;;;7.40;3.40;;;;;;;22.90;29.54;102284.13;5075507;28;20037;-75
2022/04/03 11:07:57;;;;;;;4.38;2.95;;;;;;;23.60;26.78;102278.50;5043260;28;20037;-75
2022/04/03 11:10:58;;;;;;;7.00;3.28;;;;;;;23.70;27.55;102276.09;5067066;28;20028;-75
2022/04/03 11:13:38;;;;;;;9.13;3.53;;;;;;;23.54;27.63;102260.19;5060278;28;20036;-76
2022/04/03 11:16:10;;;;;;;6.40;3.53;;;;;;;23.78;27.56;102270.34;5067723;28;20164;-75
2022/04/03 11:18:47;;;;;;;8.20;3.70;;;;;;;24.14;27.08;102249.44;5048309;28;20040;-76
2022/04/03 11:21:21;;;;;;;8.85;3.70;;;;;;;24.02;26.34;102248.53;5063901;28;20334;-75
2022/04/03 11:23:59;;;;;;;6.65;3.88;;;;;;;24.08;27.30;102239.34;5048697;28;20486;-75